Time;durP1;ratioP1;P1;durP2;ratioP2;P2;SDS_P1;SDS_P2;PMS_P1;PMS_P2;Temp;Humidity;BMP_temperature;BMP_pressure;BME280_temperature;BME280_humidity;BME280_pressure;Samples;Min_cycle;Max_cycle;Signal;HPM_P1;HPM_P2
2023/07/29 00:00:26;;;;;;;2.88;1.30;;;;;;;22.67;59.04;99996.66;5058280;28;20032;-70
2023/07/29 00:02:51;;;;;;;1.27;1.15;;;;;;;22.67;58.74;99992.22;5064182;28;20269;-71
2023/07/29 00:05:17;;;;;;;1.60;1.10;;;;;;;22.66;58.79;99990.53;5054587;28;20043;-70
2023/07/29 00:07:42;;;;;;;1.35;1.20;;;;;;;22.66;58.98;99984.41;5060374;28;20034;-71
2023/07/29 00:10:08;;;;;;;1.92;1.23;;;;;;;22.66;58.73;99984.41;5059634;28;20059;-70
2023/07/29 00:12:33;;;;;;;2.22;1.27;;;;;;;22.66;58.91;99984.41;5067800;28;20063;-71
2023/07/29 00:14:58;;;;;;;2.03;1.27;;;;;;;22.65;59.09;99975.66;5054367;28;20038;-71
2023/07/29 00:17:24;;;;;;;1.52;1.30;;;;;;;22.65;58.94;99972.16;5057626;28;20710;-70
2023/07/29 00:19:49;;;;;;;1.88;1.30;;;;;;;22.64;58.96;99975.78;5060139;28;20047;-71
2023/07/29 00:22:14;;;;;;;1.42;1.23;;;;;;;22.64;58.87;99973.16;5058558;28;20047;-71
2023/07/29 00:24:41;;;;;;;3.08;1.38;;;;;;;22.61;59.14;99966.31;5057798;28;20233;-70
2023/07/29 00:27:07;;;;;;;1.90;1.30;;;;;;;22.61;58.89;99961.00;5058918;28;20028;-70
2023/07/29 00:29:32;;;;;;;2.92;1.38;;;;;;;22.60;58.77;99961.16;5058426;28;20043;-70
2023/07/29 00:31:57;;;;;;;1.25;1.08;;;;;;;22.60;58.92;99956.69;5056195;28;20063;-70
2023/07/29 00:34:23;;;;;;;1.48;1.15;;;;;;;22.61;59.06;99954.88;5055062;28;20035;-70
2023/07/29 00:36:48;;;;;;;1.42;1.27;;;;;;;22.61;58.95;99952.25;5057765;28;20820;-71
2023/07/29 00:39:13;;;;;;;1.30;1.13;;;;;;;22.60;59.04;99954.06;5058020;28;20108;-71
2023/07/29 00:41:39;;;;;;;1.30;1.20;;;;;;;22.57;59.06;99943.75;5056902;28;20111;-70
2023/07/29 00:44:05;;;;;;;1.20;1.10;;;;;;;22.58;58.68;99939.31;5055308;28;20436;-72
2023/07/29 00:46:33;;;;;;;0.85;0.82;;;;;;;22.58;58.96;99945.44;5055369;28;20052;-70
2023/07/29 00:48:58;;;;;;;1.40;1.30;;;;;;;22.58;58.67;99945.44;5041541;28;22380;-70
2023/07/29 00:51:23;;;;;;;1.10;1.10;;;;;;;22.58;58.97;99945.44;5056414;28;20089;-71
2023/07/29 00:53:49;;;;;;;1.30;1.20;;;;;;;22.58;58.68;99948.09;5052449;28;20491;-71
2023/07/29 00:56:14;;;;;;;1.25;1.15;;;;;;;22.57;58.83;99948.19;5056823;28;20039;-70
2023/07/29 00:58:39;;;;;;;1.52;1.30;;;;;;;22.57;58.73;99943.75;5061521;28;20147;-70
2023/07/29 01:01:05;;;;;;;1.48;1.38;;;;;;;22.56;59.00;99947.38;5060496;28;20028;-71
2023/07/29 01:03:30;;;;;;;1.40;1.30;;;;;;;22.57;58.70;99943.75;5057847;28;20035;-70
2023/07/29 01:06:08;;;;;;;1.40;1.27;;;;;;;22.58;58.80;99941.97;5058922;28;20051;-70
2023/07/29 01:08:38;;;;;;;1.60;1.40;;;;;;;22.57;58.64;99935.81;5060045;28;20811;-70
2023/07/29 01:11:22;;;;;;;1.08;1.08;;;;;;;22.56;58.73;99935.94;5042993;28;20048;-70
2023/07/29 01:13:56;;;;;;;2.53;1.20;;;;;;;22.56;58.70;99935.94;5045677;28;20029;-70
2023/07/29 01:16:26;;;;;;;1.27;1.17;;;;;;;22.56;58.77;99931.50;5059015;28;20026;-70
2023/07/29 01:18:54;;;;;;;0.80;0.80;;;;;;;22.55;58.92;99934.28;5059638;28;20673;-71
2023/07/29 01:21:20;;;;;;;1.40;1.30;;;;;;;22.54;58.94;99922.03;5042671;28;20039;-70
2023/07/29 01:23:45;;;;;;;1.98;1.42;;;;;;;22.55;58.93;99929.81;5068369;28;20035;-70
2023/07/29 01:26:11;;;;;;;1.00;1.00;;;;;;;22.54;58.68;99927.31;5061014;28;20055;-71
2023/07/29 01:28:36;;;;;;;1.20;1.10;;;;;;;22.53;58.71;99931.78;5061310;28;20028;-70
2023/07/29 01:31:23;;;;;;;1.40;1.30;;;;;;;22.55;58.70;99929.00;5060392;28;20038;-70
2023/07/29 01:33:56;;;;;;;1.15;1.05;;;;;;;22.53;58.74;99928.31;5061435;28;20480;-70
2023/07/29 01:36:25;;;;;;;1.38;1.13;;;;;;;22.52;59.07;99926.63;5060574;28;20558;-71
2023/07/29 01:38:52;;;;;;;1.27;1.13;;;;;;;22.52;58.83;99922.19;5059912;28;20763;-71
2023/07/29 01:41:18;;;;;;;1.10;1.00;;;;;;;22.54;58.92;99919.38;5060971;28;20043;-70
2023/07/29 01:43:43;;;;;;;1.30;1.20;;;;;;;22.53;58.65;99915.09;5057782;28;20037;-70
2023/07/29 01:46:15;;;;;;;1.38;1.27;;;;;;;22.52;59.05;99916.03;5052460;28;20441;-71
2023/07/29 01:48:41;;;;;;;1.33;1.08;;;;;;;22.52;58.69;99908.97;5059919;28;20028;-70
2023/07/29 01:51:06;;;;;;;1.20;1.02;;;;;;;22.52;58.80;99914.25;5058014;28;20495;-71
2023/07/29 01:53:32;;;;;;;1.20;1.13;;;;;;;22.53;58.61;99912.44;5060311;28;20032;-70
2023/07/29 01:55:57;;;;;;;1.00;1.00;;;;;;;22.52;58.74;99913.38;5057614;28;20035;-70
2023/07/29 01:58:23;;;;;;;1.10;1.00;;;;;;;22.52;58.92;99905.44;5060441;28;20580;-69
2023/07/29 02:00:49;;;;;;;1.40;0.90;;;;;;;22.52;58.56;99911.59;5059275;28;20028;-70
2023/07/29 02:03:14;;;;;;;2.10;1.58;;;;;;;22.51;58.98;99907.25;5060623;28;20055;-70
2023/07/29 02:05:40;;;;;;;0.85;0.85;;;;;;;22.51;58.83;99911.72;5052533;28;20024;-70
2023/07/29 02:08:05;;;;;;;1.10;0.90;;;;;;;22.51;58.83;99911.72;5057961;28;20515;-70
2023/07/29 02:10:30;;;;;;;1.02;1.02;;;;;;;22.51;58.63;99906.44;5059461;28;20103;-71
2023/07/29 02:12:56;;;;;;;1.20;1.10;;;;;;;22.49;58.86;99910.06;5056315;28;20047;-70
2023/07/29 02:15:21;;;;;;;1.98;1.30;;;;;;;22.49;59.03;99904.75;5061315;28;20020;-69
2023/07/29 02:17:46;;;;;;;1.20;1.10;;;;;;;22.50;58.74;99913.53;5061103;28;20056;-70
2023/07/29 02:20:12;;;;;;;1.20;1.10;;;;;;;22.49;58.48;99915.34;5060083;28;20032;-70
2023/07/29 02:22:37;;;;;;;1.10;1.10;;;;;;;22.49;58.81;99906.56;5056261;28;20174;-71
2023/07/29 02:25:03;;;;;;;1.00;0.90;;;;;;;22.51;58.57;99917.00;5055453;28;20083;-69
2023/07/29 02:27:28;;;;;;;1.10;1.10;;;;;;;22.49;58.65;99909.22;5042505;28;20731;-70
2023/07/29 02:29:54;;;;;;;1.17;1.08;;;;;;;22.48;58.77;99905.75;5059304;28;20028;-70
2023/07/29 02:32:20;;;;;;;1.25;1.15;;;;;;;22.48;58.85;99908.38;5061460;28;20047;-70
2023/07/29 02:34:45;;;;;;;1.83;1.10;;;;;;;22.49;58.59;99912.69;5057112;28;20033;-70
2023/07/29 02:37:10;;;;;;;1.75;1.65;;;;;;;22.48;58.82;99904.91;5089658;27;20031;-70
2023/07/29 02:39:36;;;;;;;1.30;1.20;;;;;;;22.48;58.54;99905.75;5059377;28;20039;-70
2023/07/29 02:42:02;;;;;;;1.13;1.02;;;;;;;22.47;58.61;99906.72;5064739;28;20028;-70
2023/07/29 02:44:27;;;;;;;1.17;1.05;;;;;;;22.47;58.71;99901.44;5059925;28;20051;-70
2023/07/29 02:46:54;;;;;;;1.00;1.00;;;;;;;22.47;58.94;99896.16;5056542;28;20899;-71
2023/07/29 02:49:19;;;;;;;1.15;1.05;;;;;;;22.46;59.02;99893.63;5059533;28;20036;-71
2023/07/29 02:51:45;;;;;;;1.48;1.38;;;;;;;22.48;58.94;99876.66;5061313;28;20119;-70
2023/07/29 02:54:10;;;;;;;1.00;1.00;;;;;;;22.47;58.78;99880.28;5057218;28;20543;-70
2023/07/29 02:56:35;;;;;;;1.42;1.10;;;;;;;22.44;58.86;99882.34;5057412;28;20117;-71
2023/07/29 02:59:01;;;;;;;1.05;1.00;;;;;;;22.45;59.02;99884.00;5058797;28;20115;-70
2023/07/29 03:01:26;;;;;;;2.22;1.30;;;;;;;22.42;58.88;99877.22;5060103;28;20028;-71
2023/07/29 03:03:52;;;;;;;3.13;1.10;;;;;;;22.41;59.15;99870.25;5049379;28;20077;-71
2023/07/29 03:06:18;;;;;;;2.22;1.38;;;;;;;22.43;59.25;99860.34;5054819;28;20043;-71
2023/07/29 03:08:43;;;;;;;1.00;1.00;;;;;;;22.45;58.80;99863.69;5059160;28;20036;-71
2023/07/29 03:11:10;;;;;;;1.55;1.05;;;;;;;22.45;58.66;99863.69;5058182;28;20656;-71
2023/07/29 03:13:36;;;;;;;1.08;0.98;;;;;;;22.47;58.90;99868.84;5054029;28;20119;-71
2023/07/29 03:16:10;;;;;;;1.42;1.00;;;;;;;22.46;58.95;99865.38;5055243;28;20120;-70
2023/07/29 03:18:36;;;;;;;0.82;0.82;;;;;;;22.47;59.04;99867.03;5041291;28;20028;-70
2023/07/29 03:21:02;;;;;;;1.25;1.17;;;;;;;22.48;59.00;99862.59;5055541;28;20111;-70
2023/07/29 03:23:28;;;;;;;1.13;1.02;;;;;;;22.48;59.03;99863.41;5056863;28;20024;-70
2023/07/29 03:25:58;;;;;;;0.95;0.95;;;;;;;22.49;58.53;99853.66;5050912;28;20063;-71
2023/07/29 03:28:28;;;;;;;2.00;1.25;;;;;;;22.48;58.89;99844.06;5057983;28;20483;-71
2023/07/29 03:30:57;;;;;;;1.13;0.82;;;;;;;22.47;59.00;99842.41;5056116;28;20039;-71
2023/07/29 03:33:24;;;;;;;0.90;0.90;;;;;;;22.47;58.99;99821.25;5034905;28;20028;-71
2023/07/29 03:35:49;;;;;;;1.33;1.23;;;;;;;22.46;59.00;99812.47;5055281;28;20036;-71
2023/07/29 03:38:15;;;;;;;0.85;0.73;;;;;;;22.46;58.75;99811.63;5057564;28;20126;-71
2023/07/29 03:40:41;;;;;;;1.27;1.10;;;;;;;22.46;58.77;99823.06;5058213;28;20070;-71
2023/07/29 03:43:06;;;;;;;1.13;1.02;;;;;;;22.45;58.69;99829.31;5052911;28;20031;-71
2023/07/29 03:45:32;;;;;;;1.67;1.13;;;;;;;22.45;58.90;99839.88;5057474;28;20665;-71
2023/07/29 03:47:57;;;;;;;0.80;0.80;;;;;;;22.46;58.63;99838.06;5060326;28;20031;-71
2023/07/29 03:50:24;;;;;;;1.17;1.08;;;;;;;22.45;58.87;99829.31;5057967;28;20047;-71
2023/07/29 03:52:49;;;;;;;0.82;0.82;;;;;;;22.46;58.87;99832.78;5062496;28;20996;-71
2023/07/29 03:55:14;;;;;;;0.93;0.85;;;;;;;22.46;58.88;99838.06;5051203;28;20056;-71
2023/07/29 03:57:40;;;;;;;1.13;1.13;;;;;;;22.46;58.47;99844.22;5057539;28;20114;-71
2023/07/29 04:00:05;;;;;;;0.95;0.95;;;;;;;22.46;59.03;99843.34;5057002;28;20028;-69
2023/07/29 04:02:31;;;;;;;1.13;1.05;;;;;;;22.46;58.58;99838.06;5055766;28;20086;-70
2023/07/29 04:04:56;;;;;;;0.95;0.95;;;;;;;22.46;58.78;99841.56;5050369;28;20136;-69
2023/07/29 04:07:21;;;;;;;1.77;1.17;;;;;;;22.46;58.82;99841.56;5057971;28;20028;-70
2023/07/29 04:09:47;;;;;;;1.00;1.00;;;;;;;22.45;58.59;99839.88;5058991;28;20036;-70
2023/07/29 04:12:12;;;;;;;1.25;1.15;;;;;;;22.45;58.74;99834.59;5054922;28;20032;-71
2023/07/29 04:14:38;;;;;;;1.23;1.13;;;;;;;22.46;58.72;99841.56;5054507;28;20029;-70
2023/07/29 04:17:03;;;;;;;0.90;0.90;;;;;;;22.45;58.68;99839.88;5053357;28;20043;-71
2023/07/29 04:19:29;;;;;;;0.98;0.93;;;;;;;22.46;58.72;99835.41;5058912;28;20032;-71
2023/07/29 04:21:54;;;;;;;1.10;1.00;;;;;;;22.45;58.51;99836.41;5054530;28;20795;-70
2023/07/29 04:24:20;;;;;;;3.05;0.98;;;;;;;22.46;58.86;99857.44;5052551;28;20045;-70
2023/07/29 04:26:45;;;;;;;0.80;0.80;;;;;;;22.46;58.96;99857.44;5058095;28;20030;-71
2023/07/29 04:29:11;;;;;;;1.55;1.00;;;;;;;22.46;58.77;99862.75;5058972;28;20924;-71
2023/07/29 04:31:37;;;;;;;0.70;0.70;;;;;;;22.46;58.82;99867.16;5056347;28;20126;-71
2023/07/29 04:34:02;;;;;;;1.20;1.10;;;;;;;22.46;58.63;99868.03;5054592;28;20031;-70
2023/07/29 04:36:27;;;;;;;1.05;1.05;;;;;;;22.46;58.79;99867.16;5061636;28;20770;-70
2023/07/29 04:38:53;;;;;;;1.17;1.08;;;;;;;22.45;59.08;99870.78;5062847;28;20038;-72
2023/07/29 04:41:18;;;;;;;2.63;1.00;;;;;;;22.45;58.75;99854.91;5059874;28;20078;-70
2023/07/29 04:43:43;;;;;;;1.52;1.10;;;;;;;22.45;58.89;99870.78;5062955;28;20527;-71
2023/07/29 04:46:09;;;;;;;0.95;0.90;;;;;;;22.44;58.82;99869.13;5060801;28;20827;-70
2023/07/29 04:48:34;;;;;;;0.70;0.70;;;;;;;22.44;58.73;99861.19;5064085;28;20039;-70
2023/07/29 04:51:00;;;;;;;0.88;0.88;;;;;;;22.44;58.75;99869.13;5060380;28;20028;-71
2023/07/29 04:53:25;;;;;;;1.25;1.15;;;;;;;22.45;58.93;99884.00;5061690;28;20048;-71
2023/07/29 04:55:50;;;;;;;0.98;0.90;;;;;;;22.44;58.51;99879.72;5061335;28;20119;-71
2023/07/29 04:58:16;;;;;;;1.02;1.00;;;;;;;22.44;58.74;99891.13;5061666;28;20808;-71
2023/07/29 05:00:41;;;;;;;0.90;0.90;;;;;;;22.44;58.66;99869.13;5060482;28;20020;-71
2023/07/29 05:03:06;;;;;;;1.08;1.02;;;;;;;22.45;58.54;99865.50;5056423;28;20107;-70
2023/07/29 05:05:32;;;;;;;0.90;0.90;;;;;;;22.44;58.81;99885.81;5053955;28;20028;-70
2023/07/29 05:07:57;;;;;;;1.08;1.08;;;;;;;22.44;58.79;99880.53;5043124;28;20048;-71
2023/07/29 05:10:23;;;;;;;1.17;1.10;;;;;;;22.44;58.69;99875.25;5059963;28;20433;-71
2023/07/29 05:12:48;;;;;;;1.55;0.95;;;;;;;22.45;58.92;99855.75;5044775;28;20043;-70
2023/07/29 05:15:14;;;;;;;1.20;1.10;;;;;;;22.45;58.78;99862.84;5062811;28;20062;-71
2023/07/29 05:17:40;;;;;;;1.10;0.98;;;;;;;22.43;58.77;99860.34;5062127;28;20120;-70
2023/07/29 05:20:06;;;;;;;1.00;1.00;;;;;;;22.44;58.69;99885.00;5061275;28;20032;-70
2023/07/29 05:22:31;;;;;;;1.27;1.17;;;;;;;22.44;58.66;99877.06;5054204;28;20765;-71
2023/07/29 05:24:57;;;;;;;1.10;1.00;;;;;;;22.44;58.76;99869.97;5056167;28;20068;-71
2023/07/29 05:27:22;;;;;;;1.38;1.02;;;;;;;22.44;59.05;99880.53;5060298;28;20036;-70
2023/07/29 05:29:47;;;;;;;0.95;0.95;;;;;;;22.44;58.79;99891.13;5060365;28;20147;-71
2023/07/29 05:32:13;;;;;;;0.95;0.90;;;;;;;22.45;58.67;99873.44;5059923;28;20736;-71
2023/07/29 05:34:38;;;;;;;1.00;1.00;;;;;;;22.44;58.77;99874.41;5054608;28;20805;-71
2023/07/29 05:37:04;;;;;;;1.17;1.00;;;;;;;22.43;58.86;99875.41;5061359;28;20039;-70
2023/07/29 05:39:30;;;;;;;1.38;1.05;;;;;;;22.45;58.54;99879.56;5063148;28;20029;-71
2023/07/29 05:41:55;;;;;;;2.65;1.08;;;;;;;22.45;58.85;99878.72;5060107;28;20031;-70
2023/07/29 05:44:21;;;;;;;1.10;1.00;;;;;;;22.45;58.88;99876.09;5056641;28;20032;-70
2023/07/29 05:46:47;;;;;;;1.58;0.95;;;;;;;22.45;58.70;99881.38;5045463;28;20063;-70
2023/07/29 05:49:12;;;;;;;0.90;0.90;;;;;;;22.44;58.56;99885.81;5044822;28;20020;-70
2023/07/29 05:51:38;;;;;;;1.35;1.10;;;;;;;22.44;58.86;99885.81;5061942;28;20521;-71
2023/07/29 05:54:03;;;;;;;0.93;0.90;;;;;;;22.45;58.79;99897.25;5040370;28;20114;-70
2023/07/29 05:56:31;;;;;;;1.27;1.15;;;;;;;22.44;58.92;99887.66;5058731;28;20042;-70
2023/07/29 05:58:56;;;;;;;0.88;0.88;;;;;;;22.44;58.75;99883.19;5061822;28;20370;-70
2023/07/29 06:01:22;;;;;;;0.90;0.90;;;;;;;22.44;58.94;99888.47;5058068;28;20031;-71
2023/07/29 06:03:47;;;;;;;0.88;0.82;;;;;;;22.45;58.74;99884.00;5057854;28;20024;-70
2023/07/29 06:06:12;;;;;;;1.75;1.40;;;;;;;22.44;58.70;99877.91;5061250;28;20045;-70
2023/07/29 06:08:38;;;;;;;1.27;1.08;;;;;;;22.44;59.12;99869.13;5044710;28;20032;-71
2023/07/29 06:11:06;;;;;;;1.20;1.10;;;;;;;22.43;58.91;99870.94;5061422;28;21031;-71
2023/07/29 06:13:31;;;;;;;1.20;0.90;;;;;;;22.45;59.06;99868.16;5056043;28;20025;-70
2023/07/29 06:15:57;;;;;;;1.13;1.00;;;;;;;22.45;58.96;99868.97;5058043;28;20039;-70
2023/07/29 06:18:22;;;;;;;1.05;1.02;;;;;;;22.47;58.92;99864.41;5059896;28;20028;-70
2023/07/29 06:20:48;;;;;;;1.08;0.98;;;;;;;22.48;58.96;99868.72;5059362;28;20714;-70
2023/07/29 06:23:13;;;;;;;1.17;1.10;;;;;;;22.49;58.69;99877.47;5055782;28;20411;-69
2023/07/29 06:25:38;;;;;;;1.02;1.00;;;;;;;22.48;58.66;99881.94;5055793;28;20051;-70
2023/07/29 06:28:04;;;;;;;1.13;1.02;;;;;;;22.48;58.70;99879.28;5061937;28;20120;-70
2023/07/29 06:30:30;;;;;;;1.10;1.00;;;;;;;22.49;58.77;99883.59;5060805;28;20507;-70
2023/07/29 06:32:55;;;;;;;0.95;0.95;;;;;;;22.49;58.71;99888.06;5056759;28;20093;-71
2023/07/29 06:35:21;;;;;;;1.85;1.05;;;;;;;22.48;58.68;99895.16;5058655;28;20055;-71
2023/07/29 06:37:46;;;;;;;1.23;1.13;;;;;;;22.49;58.92;99896.00;5060674;28;20415;-70
2023/07/29 06:40:12;;;;;;;1.73;1.10;;;;;;;22.51;58.79;99898.50;5059545;28;20025;-70
2023/07/29 06:42:37;;;;;;;1.98;1.00;;;;;;;22.52;58.52;99892.22;5062449;28;20388;-70
2023/07/29 06:45:04;;;;;;;1.20;1.10;;;;;;;22.51;58.43;99894.03;5054908;28;20060;-69
2023/07/29 06:47:30;;;;;;;1.50;1.10;;;;;;;22.52;58.87;99892.22;5059619;28;20827;-70
2023/07/29 06:49:55;;;;;;;1.17;1.08;;;;;;;22.53;58.77;99891.28;5060605;28;20085;-71
2023/07/29 06:52:20;;;;;;;1.08;0.98;;;;;;;22.52;58.63;99892.22;5053261;28;20787;-70
2023/07/29 06:54:46;;;;;;;1.23;1.10;;;;;;;22.52;58.61;99892.22;5056254;28;20730;-70
2023/07/29 06:57:11;;;;;;;1.75;0.77;;;;;;;22.53;58.59;99893.91;5059375;28;20830;-70
2023/07/29 06:59:37;;;;;;;1.08;0.77;;;;;;;22.51;58.94;99894.03;5058721;28;20035;-71
2023/07/29 07:02:02;;;;;;;1.00;1.00;;;;;;;22.54;58.89;99900.88;5055991;28;20028;-70
2023/07/29 07:04:28;;;;;;;1.20;1.10;;;;;;;22.54;58.92;99888.47;5053322;28;20034;-70
2023/07/29 07:06:53;;;;;;;1.10;1.00;;;;;;;22.54;58.65;99887.66;5055378;28;20034;-70
2023/07/29 07:09:19;;;;;;;0.98;0.88;;;;;;;22.56;58.87;99893.63;5040515;28;20063;-69
2023/07/29 07:11:44;;;;;;;1.52;1.40;;;;;;;22.58;58.90;99899.63;5059290;28;20032;-71
2023/07/29 07:14:10;;;;;;;0.93;0.82;;;;;;;22.58;58.69;99891.69;5058848;28;20109;-71
2023/07/29 07:16:36;;;;;;;1.25;1.20;;;;;;;22.58;58.65;99889.03;5057629;28;20032;-70
2023/07/29 07:19:02;;;;;;;1.55;1.45;;;;;;;22.60;58.31;99889.72;5058143;28;20097;-70
2023/07/29 07:21:27;;;;;;;1.40;1.20;;;;;;;22.61;58.83;99886.09;5056098;28;20039;-70
2023/07/29 07:23:53;;;;;;;2.15;1.20;;;;;;;22.61;58.43;99884.28;5060628;28;20032;-70
2023/07/29 07:26:18;;;;;;;1.40;1.30;;;;;;;22.64;58.34;99869.94;5056700;28;20115;-70
2023/07/29 07:28:44;;;;;;;1.20;1.10;;;;;;;22.63;58.43;99869.09;5059960;28;20034;-70
2023/07/29 07:31:09;;;;;;;1.30;1.20;;;;;;;22.62;58.61;99879.81;5058476;28;20112;-71
2023/07/29 07:33:35;;;;;;;1.90;0.90;;;;;;;22.61;58.45;99867.56;5064253;28;20032;-70
2023/07/29 07:36:00;;;;;;;1.60;1.30;;;;;;;22.60;58.65;99879.13;5058836;28;20123;-71
2023/07/29 07:38:25;;;;;;;1.40;1.30;;;;;;;22.59;58.63;99893.34;5059558;28;20743;-70
2023/07/29 07:40:57;;;;;;;1.30;0.90;;;;;;;22.55;58.87;99902.53;5040231;28;20093;-71
2023/07/29 07:43:23;;;;;;;1.02;1.00;;;;;;;22.51;59.02;99907.25;5058864;28;20028;-71
2023/07/29 07:45:48;;;;;;;1.33;1.20;;;;;;;22.52;58.76;99902.81;5052050;28;20147;-71
2023/07/29 07:48:14;;;;;;;1.50;1.40;;;;;;;22.54;58.85;99903.53;5059284;28;20093;-70
2023/07/29 07:50:39;;;;;;;1.23;1.13;;;;;;;22.55;58.74;99897.25;5058436;28;20078;-70
2023/07/29 07:53:05;;;;;;;1.33;1.20;;;;;;;22.51;59.15;99898.50;5033448;28;20052;-69
2023/07/29 07:55:30;;;;;;;1.33;1.00;;;;;;;22.42;59.32;99908.94;5061070;28;20028;-68
2023/07/29 07:57:55;;;;;;;1.52;1.15;;;;;;;22.52;59.77;99897.50;5059050;28;20031;-69
2023/07/29 08:00:21;;;;;;;2.50;1.83;;;;;;;22.59;60.03;99911.88;5059607;28;20063;-69
2023/07/29 08:02:46;;;;;;;3.78;1.70;;;;;;;22.60;60.51;99918.81;5062956;28;20036;-69
2023/07/29 08:05:12;;;;;;;22.20;6.00;;;;;;;22.88;62.68;99920.63;5063722;28;20106;-68
2023/07/29 08:07:37;;;;;;;21.40;7.47;;;;;;;23.13;61.58;99920.97;5063012;28;20035;-69
2023/07/29 08:10:02;;;;;;;8.32;2.80;;;;;;;22.77;59.62;99926.06;5063465;28;20036;-69
2023/07/29 08:12:28;;;;;;;2.05;1.50;;;;;;;22.51;60.14;99925.78;5059603;28;20032;-68
2023/07/29 08:14:53;;;;;;;1.75;1.40;;;;;;;22.44;60.05;99922.84;5063548;28;20530;-69
2023/07/29 08:17:19;;;;;;;2.05;1.65;;;;;;;22.40;60.18;99918.81;5063499;28;20074;-69
2023/07/29 08:19:44;;;;;;;3.88;1.65;;;;;;;22.38;60.30;99912.00;5062139;28;20115;-69
2023/07/29 08:22:09;;;;;;;3.97;1.77;;;;;;;22.38;60.29;99915.47;5057751;28;20791;-69
2023/07/29 08:24:35;;;;;;;4.25;2.17;;;;;;;22.36;60.77;99914.81;5056623;28;20704;-69
2023/07/29 08:27:00;;;;;;;3.60;1.80;;;;;;;22.36;60.56;99913.97;5061363;28;21257;-69
2023/07/29 08:29:26;;;;;;;3.55;2.10;;;;;;;22.35;60.58;99915.78;5063857;28;20082;-69
2023/07/29 08:31:51;;;;;;;3.60;1.77;;;;;;;22.36;60.74;99913.97;5059873;28;20545;-68
2023/07/29 08:34:17;;;;;;;5.20;1.88;;;;;;;22.36;60.50;99912.16;5056854;28;20815;-68
2023/07/29 08:36:42;;;;;;;2.58;1.63;;;;;;;22.36;60.71;99906.88;5063085;28;20093;-69
2023/07/29 08:39:07;;;;;;;6.28;1.67;;;;;;;22.36;60.94;99906.88;5063766;28;20490;-69
2023/07/29 08:41:38;;;;;;;2.75;1.40;;;;;;;22.49;60.69;99922.44;5064318;28;20024;-68
2023/07/29 08:44:12;;;;;;;6.07;2.33;;;;;;;22.45;60.29;99923.69;5062270;28;20132;-67
2023/07/29 08:46:39;;;;;;;3.35;1.80;;;;;;;22.40;60.69;99932.03;5058255;28;20039;-68
2023/07/29 08:49:04;;;;;;;3.33;2.00;;;;;;;22.39;60.53;99938.31;5063748;28;20016;-67
2023/07/29 08:51:31;;;;;;;2.10;1.80;;;;;;;22.37;60.48;99937.63;5060522;28;20145;-67
2023/07/29 08:53:58;;;;;;;3.58;2.10;;;;;;;22.37;60.84;99940.28;5058524;28;20040;-70
2023/07/29 08:56:24;;;;;;;1.75;1.50;;;;;;;22.36;60.51;99938.59;5061829;28;20138;-67
2023/07/29 08:58:49;;;;;;;3.65;1.80;;;;;;;22.38;60.84;99951.69;5064413;28;20028;-69
2023/07/29 09:01:15;;;;;;;1.75;1.45;;;;;;;22.38;60.44;99935.81;5062797;28;20431;-70
2023/07/29 09:03:41;;;;;;;1.92;1.60;;;;;;;22.36;60.52;99929.84;5089271;27;20103;-69
2023/07/29 09:06:07;;;;;;;1.95;1.27;;;;;;;22.37;60.68;99934.16;5059481;28;20116;-67
2023/07/29 09:08:33;;;;;;;2.90;1.65;;;;;;;22.34;60.80;99929.94;5063652;28;20495;-67
2023/07/29 09:10:59;;;;;;;4.15;1.58;;;;;;;22.35;60.84;99936.06;5061431;28;20404;-68
2023/07/29 09:13:25;;;;;;;3.08;1.90;;;;;;;22.35;60.88;99923.72;5072456;28;20028;-67
2023/07/29 09:15:54;;;;;;;2.47;1.67;;;;;;;22.36;60.91;99935.97;5058931;28;20032;-67
2023/07/29 09:18:20;;;;;;;;;;;;;;;22.36;60.66;99930.66;5062974;28;20064;-67
2023/07/29 09:20:49;;;;;;;4.22;1.73;;;;;;;22.37;61.02;99920.91;5059926;28;20342;-68
2023/07/29 09:23:15;;;;;;;3.10;1.50;;;;;;;22.37;60.59;99908.53;5062393;28;20024;-67
2023/07/29 09:25:41;;;;;;;2.03;1.42;;;;;;;22.35;60.69;99897.25;5066287;28;20056;-68
2023/07/29 09:28:11;;;;;;;2.60;1.50;;;;;;;22.34;61.07;99900.84;5062273;28;20519;-69
2023/07/29 09:30:41;;;;;;;3.72;1.75;;;;;;;22.34;60.86;99895.56;5059593;28;20917;-68
2023/07/29 09:33:07;;;;;;;2.05;1.50;;;;;;;22.35;61.02;99902.56;5063287;28;20135;-68
2023/07/29 09:35:33;;;;;;;4.35;1.70;;;;;;;22.37;60.83;99905.06;5064969;28;20535;-68
2023/07/29 09:37:59;;;;;;;2.20;1.63;;;;;;;22.35;60.77;99905.19;5043901;28;20024;-70
2023/07/29 09:40:25;;;;;;;2.50;1.60;;;;;;;22.35;60.80;99906.97;5060043;28;20378;-68
2023/07/29 09:42:51;;;;;;;3.00;1.67;;;;;;;22.36;61.11;99904.22;5067857;28;20073;-69
2023/07/29 09:45:24;;;;;;;2.50;1.35;;;;;;;22.36;62.26;99900.75;5070200;28;20024;-69
2023/07/29 09:47:50;;;;;;;2.40;1.98;;;;;;;22.36;62.91;99900.75;5062626;28;20241;-68
2023/07/29 09:50:15;;;;;;;9.10;1.60;;;;;;;22.46;62.38;99909.50;5061107;28;20025;-67
2023/07/29 09:52:41;;;;;;;24.83;3.08;;;;;;;22.52;61.83;99900.16;5061473;28;20032;-67
2023/07/29 09:55:07;;;;;;;8.23;1.77;;;;;;;22.44;61.38;99898.22;5051993;28;20094;-69
2023/07/29 09:57:33;;;;;;;8.88;1.63;;;;;;;22.48;61.01;99903.09;5056632;28;20028;-68
2023/07/29 09:59:59;;;;;;;7.95;2.00;;;;;;;22.49;61.10;99907.41;5059351;28;20028;-68
2023/07/29 10:02:28;;;;;;;9.40;2.00;;;;;;;22.44;61.07;99914.94;5054635;28;20103;-68
2023/07/29 10:04:54;;;;;;;3.60;1.47;;;;;;;22.43;61.12;99915.06;5060432;28;20108;-68
2023/07/29 10:07:20;;;;;;;3.70;1.63;;;;;;;22.41;61.29;99909.09;5058961;28;20328;-67
2023/07/29 10:09:45;;;;;;;1.73;1.40;;;;;;;22.42;61.24;99910.75;5059353;28;20020;-69
2023/07/29 10:12:11;;;;;;;4.75;1.60;;;;;;;22.40;61.33;99915.34;5055685;28;20055;-67
2023/07/29 10:14:38;;;;;;;2.75;1.40;;;;;;;22.41;61.37;99911.75;5059455;28;20051;-68
2023/07/29 10:17:05;;;;;;;7.28;1.65;;;;;;;22.39;61.51;99909.22;5057955;28;20151;-68
2023/07/29 10:19:30;;;;;;;6.20;1.80;;;;;;;22.37;61.41;99913.81;5061557;28;20543;-67
2023/07/29 10:22:00;;;;;;;6.22;1.60;;;;;;;22.37;61.20;99915.63;5055427;28;20031;-67
2023/07/29 10:24:28;;;;;;;;;;;;;;;22.37;61.51;99913.00;5068381;28;20036;-67
2023/07/29 10:26:57;;;;;;;4.47;1.55;;;;;;;22.36;61.37;99904.22;5059086;28;20756;-67
2023/07/29 10:29:23;;;;;;;2.63;1.20;;;;;;;22.36;61.35;99909.50;5059208;28;20532;-68
2023/07/29 10:31:53;;;;;;;1.63;1.42;;;;;;;22.35;61.39;99915.78;5054918;28;20047;-67
2023/07/29 10:34:19;;;;;;;2.75;1.30;;;;;;;22.35;61.51;99918.44;5059245;28;20019;-68
2023/07/29 10:36:45;;;;;;;2.97;1.42;;;;;;;22.35;61.38;99912.28;5060479;28;20023;-68
2023/07/29 10:39:11;;;;;;;2.95;1.48;;;;;;;22.39;61.16;99911.88;5056685;28;20037;-67
2023/07/29 10:42:05;;;;;;;2.85;1.75;;;;;;;22.40;61.30;99910.03;5048045;28;20150;-67
2023/07/29 10:44:39;;;;;;;2.72;1.40;;;;;;;22.36;61.25;99912.16;5054655;28;20063;-67
2023/07/29 10:47:15;;;;;;;2.83;1.42;;;;;;;22.38;61.43;99912.84;5056602;28;20036;-69
2023/07/29 10:49:43;;;;;;;1.77;1.50;;;;;;;22.37;61.41;99905.88;5058976;28;20044;-70
2023/07/29 10:52:13;;;;;;;3.90;1.33;;;;;;;22.37;61.19;99911.19;5051067;28;20809;-69
2023/07/29 10:54:48;;;;;;;2.67;1.30;;;;;;;22.37;61.47;99905.88;5033218;28;20363;-68
2023/07/29 10:57:34;;;;;;;3.03;1.80;;;;;;;22.46;61.24;99909.50;5054605;28;20059;-70
2023/07/29 11:00:00;;;;;;;2.42;1.30;;;;;;;22.49;61.16;99909.22;5058079;28;20031;-69
2023/07/29 11:02:56;;;;;;;2.97;1.58;;;;;;;22.45;61.08;99898.06;5053863;28;20059;-70
2023/07/29 11:05:22;;;;;;;2.83;1.70;;;;;;;22.51;61.65;99909.06;5051337;28;20688;-68
2023/07/29 11:07:48;;;;;;;4.85;1.50;;;;;;;22.54;61.34;99911.44;5059899;28;20139;-68
2023/07/29 11:10:14;;;;;;;2.70;1.40;;;;;;;22.50;61.19;99902.94;5059115;28;20728;-69
2023/07/29 11:12:42;;;;;;;3.78;2.00;;;;;;;22.51;61.23;99909.91;5064287;28;20102;-69
2023/07/29 11:15:11;;;;;;;4.97;1.52;;;;;;;22.49;61.40;99896.00;5050916;28;20039;-71
2023/07/29 11:17:49;;;;;;;5.38;1.60;;;;;;;22.50;61.42;99900.31;5061050;28;20586;-69
2023/07/29 11:20:16;;;;;;;2.28;1.58;;;;;;;22.49;61.47;99899.47;5060008;28;20839;-69
2023/07/29 11:22:42;;;;;;;2.60;1.42;;;;;;;22.48;61.65;99897.81;5062550;28;20563;-68
2023/07/29 11:25:09;;;;;;;2.92;1.73;;;;;;;22.48;61.50;99911.03;5057330;28;20059;-69
2023/07/29 11:27:35;;;;;;;3.85;1.27;;;;;;;22.47;61.53;99917.31;5061327;28;20032;-70
2023/07/29 11:30:04;;;;;;;4.15;1.48;;;;;;;22.47;61.90;99906.72;5061681;28;20407;-70